sensor_id;sensor_type;location;lat;lon;timestamp;temperature;humidity
18508;DHT22;9383;50.928;12.116;2022-09-03T00:00:48;13.10;87.30
18508;DHT22;9383;50.928;12.116;2022-09-03T00:03:24;13.10;87.50
18508;DHT22;9383;50.928;12.116;2022-09-03T00:06:16;13.00;87.50
18508;DHT22;9383;50.928;12.116;2022-09-03T00:09:04;13.00;87.70
18508;DHT22;9383;50.928;12.116;2022-09-03T00:14:59;13.00;87.90
18508;DHT22;9383;50.928;12.116;2022-09-03T00:17:48;13.00;88.00
18508;DHT22;9383;50.928;12.116;2022-09-03T00:20:33;13.00;87.90
18508;DHT22;9383;50.928;12.116;2022-09-03T00:23:07;12.90;87.90
18508;DHT22;9383;50.928;12.116;2022-09-03T00:25:58;12.80;87.80
18508;DHT22;9383;50.928;12.116;2022-09-03T00:28:46;12.80;88.20
18508;DHT22;9383;50.928;12.116;2022-09-03T00:31:34;12.90;88.20
18508;DHT22;9383;50.928;12.116;2022-09-03T00:34:12;12.80;88.30
18508;DHT22;9383;50.928;12.116;2022-09-03T00:36:46;12.80;88.40
18508;DHT22;9383;50.928;12.116;2022-09-03T00:39:17;12.80;88.30
18508;DHT22;9383;50.928;12.116;2022-09-03T00:42:04;12.70;88.30
18508;DHT22;9383;50.928;12.116;2022-09-03T00:48:02;12.70;88.50
18508;DHT22;9383;50.928;12.116;2022-09-03T00:54:05;12.60;88.40
18508;DHT22;9383;50.928;12.116;2022-09-03T01:00:30;12.50;88.20
18508;DHT22;9383;50.928;12.116;2022-09-03T01:03:06;12.40;88.30
18508;DHT22;9383;50.928;12.116;2022-09-03T01:05:56;12.40;88.30
18508;DHT22;9383;50.928;12.116;2022-09-03T01:08:37;12.30;88.50
18508;DHT22;9383;50.928;12.116;2022-09-03T01:11:51;12.20;88.40
18508;DHT22;9383;50.928;12.116;2022-09-03T01:20:24;12.10;89.10
18508;DHT22;9383;50.928;12.116;2022-09-03T01:32:13;11.90;90.10
18508;DHT22;9383;50.928;12.116;2022-09-03T01:35:09;11.90;90.30
18508;DHT22;9383;50.928;12.116;2022-09-03T01:40:59;11.90;90.90
18508;DHT22;9383;50.928;12.116;2022-09-03T01:44:06;11.90;90.90
18508;DHT22;9383;50.928;12.116;2022-09-03T01:46:44;12.50;91.20
18508;DHT22;9383;50.928;12.116;2022-09-03T01:49:56;11.80;91.20
18508;DHT22;9383;50.928;12.116;2022-09-03T01:52:50;11.80;91.40
18508;DHT22;9383;50.928;12.116;2022-09-03T01:58:59;11.80;91.60
18508;DHT22;9383;50.928;12.116;2022-09-03T02:01:37;11.80;91.60
18508;DHT22;9383;50.928;12.116;2022-09-03T02:04:18;11.80;91.70
18508;DHT22;9383;50.928;12.116;2022-09-03T02:06:49;11.80;91.90
18508;DHT22;9383;50.928;12.116;2022-09-03T02:09:18;11.80;92.00
18508;DHT22;9383;50.928;12.116;2022-09-03T02:11:50;11.80;92.10
18508;DHT22;9383;50.928;12.116;2022-09-03T02:14:23;11.80;92.20
18508;DHT22;9383;50.928;12.116;2022-09-03T02:16:51;11.80;92.40
18508;DHT22;9383;50.928;12.116;2022-09-03T02:19:19;11.80;92.50
18508;DHT22;9383;50.928;12.116;2022-09-03T02:21:49;11.70;92.50
18508;DHT22;9383;50.928;12.116;2022-09-03T02:24:18;11.70;92.50
18508;DHT22;9383;50.928;12.116;2022-09-03T02:26:45;11.70;92.60
18508;DHT22;9383;50.928;12.116;2022-09-03T02:29:12;11.70;92.40
18508;DHT22;9383;50.928;12.116;2022-09-03T02:31:40;11.70;92.60
18508;DHT22;9383;50.928;12.116;2022-09-03T02:34:06;11.70;92.60
18508;DHT22;9383;50.928;12.116;2022-09-03T02:36:37;11.70;92.70
18508;DHT22;9383;50.928;12.116;2022-09-03T02:39:11;11.70;92.70
18508;DHT22;9383;50.928;12.116;2022-09-03T02:41:38;11.70;92.90
18508;DHT22;9383;50.928;12.116;2022-09-03T02:44:17;11.60;92.90
18508;DHT22;9383;50.928;12.116;2022-09-03T02:46:59;11.60;93.00
18508;DHT22;9383;50.928;12.116;2022-09-03T02:49:28;11.60;93.10
18508;DHT22;9383;50.928;12.116;2022-09-03T02:51:59;11.60;93.10
18508;DHT22;9383;50.928;12.116;2022-09-03T02:54:32;11.60;93.10
18508;DHT22;9383;50.928;12.116;2022-09-03T02:57:01;12.20;93.20
18508;DHT22;9383;50.928;12.116;2022-09-03T02:59:28;11.60;93.10
18508;DHT22;9383;50.928;12.116;2022-09-03T03:01:54;11.60;93.20
18508;DHT22;9383;50.928;12.116;2022-09-03T03:04:20;11.60;93.20
18508;DHT22;9383;50.928;12.116;2022-09-03T03:06:47;11.60;93.20
18508;DHT22;9383;50.928;12.116;2022-09-03T03:09:18;11.60;93.20
18508;DHT22;9383;50.928;12.116;2022-09-03T03:11:44;11.60;93.30
18508;DHT22;9383;50.928;12.116;2022-09-03T03:14:11;11.60;93.30
18508;DHT22;9383;50.928;12.116;2022-09-03T03:16:37;11.60;93.40
18508;DHT22;9383;50.928;12.116;2022-09-03T03:19:03;11.60;93.40
18508;DHT22;9383;50.928;12.116;2022-09-03T03:21:29;11.50;93.20
18508;DHT22;9383;50.928;12.116;2022-09-03T03:23:55;11.50;93.20
18508;DHT22;9383;50.928;12.116;2022-09-03T03:26:22;11.80;93.50
18508;DHT22;9383;50.928;12.116;2022-09-03T03:28:54;11.50;93.50
18508;DHT22;9383;50.928;12.116;2022-09-03T03:31:22;11.50;93.50
18508;DHT22;9383;50.928;12.116;2022-09-03T03:33:59;11.50;93.50
18508;DHT22;9383;50.928;12.116;2022-09-03T03:36:30;11.40;93.50
18508;DHT22;9383;50.928;12.116;2022-09-03T03:38:59;11.40;93.60
18508;DHT22;9383;50.928;12.116;2022-09-03T03:41:32;11.40;93.60
18508;DHT22;9383;50.928;12.116;2022-09-03T03:44:01;11.30;93.60
18508;DHT22;9383;50.928;12.116;2022-09-03T03:46:31;11.30;93.60
18508;DHT22;9383;50.928;12.116;2022-09-03T03:49:03;11.30;93.60
18508;DHT22;9383;50.928;12.116;2022-09-03T03:51:31;11.30;93.50
18508;DHT22;9383;50.928;12.116;2022-09-03T03:53:58;11.20;93.40
18508;DHT22;9383;50.928;12.116;2022-09-03T03:56:25;11.20;93.50
18508;DHT22;9383;50.928;12.116;2022-09-03T03:58:52;11.10;93.40
18508;DHT22;9383;50.928;12.116;2022-09-03T04:01:21;12.70;93.80
18508;DHT22;9383;50.928;12.116;2022-09-03T04:03:50;11.00;93.40
18508;DHT22;9383;50.928;12.116;2022-09-03T04:06:18;11.00;93.40
18508;DHT22;9383;50.928;12.116;2022-09-03T04:08:46;11.00;93.40
18508;DHT22;9383;50.928;12.116;2022-09-03T04:11:16;12.70;93.80
18508;DHT22;9383;50.928;12.116;2022-09-03T04:13:45;10.90;93.40
18508;DHT22;9383;50.928;12.116;2022-09-03T04:16:17;10.80;93.30
18508;DHT22;9383;50.928;12.116;2022-09-03T04:18:46;10.80;93.30
18508;DHT22;9383;50.928;12.116;2022-09-03T04:21:21;10.70;93.30
18508;DHT22;9383;50.928;12.116;2022-09-03T04:23:50;10.60;93.20
18508;DHT22;9383;50.928;12.116;2022-09-03T04:26:20;10.50;93.10
18508;DHT22;9383;50.928;12.116;2022-09-03T04:28:48;10.60;93.30
18508;DHT22;9383;50.928;12.116;2022-09-03T04:31:16;10.50;93.30
18508;DHT22;9383;50.928;12.116;2022-09-03T04:33:44;10.40;93.20
18508;DHT22;9383;50.928;12.116;2022-09-03T04:36:22;10.40;93.20
18508;DHT22;9383;50.928;12.116;2022-09-03T04:38:51;10.30;93.20
18508;DHT22;9383;50.928;12.116;2022-09-03T04:41:24;10.30;93.20
18508;DHT22;9383;50.928;12.116;2022-09-03T04:43:54;10.20;93.00
18508;DHT22;9383;50.928;12.116;2022-09-03T04:46:23;10.20;93.20
18508;DHT22;9383;50.928;12.116;2022-09-03T04:48:52;10.10;93.20
18508;DHT22;9383;50.928;12.116;2022-09-03T04:51:22;10.10;93.30
18508;DHT22;9383;50.928;12.116;2022-09-03T04:53:54;10.00;93.30
18508;DHT22;9383;50.928;12.116;2022-09-03T04:56:24;10.00;93.30
18508;DHT22;9383;50.928;12.116;2022-09-03T04:59:00;9.90;93.40
18508;DHT22;9383;50.928;12.116;2022-09-03T05:01:30;9.90;93.30
18508;DHT22;9383;50.928;12.116;2022-09-03T05:03:58;10.30;93.60
18508;DHT22;9383;50.928;12.116;2022-09-03T05:06:26;9.80;93.50
18508;DHT22;9383;50.928;12.116;2022-09-03T05:08:53;9.80;93.70
18508;DHT22;9383;50.928;12.116;2022-09-03T05:11:21;9.70;93.80
18508;DHT22;9383;50.928;12.116;2022-09-03T05:13:51;9.70;94.00
18508;DHT22;9383;50.928;12.116;2022-09-03T05:16:19;9.60;94.00
18508;DHT22;9383;50.928;12.116;2022-09-03T05:18:47;9.60;94.20
18508;DHT22;9383;50.928;12.116;2022-09-03T05:21:15;9.60;94.50
18508;DHT22;9383;50.928;12.116;2022-09-03T05:23:45;9.60;94.60
18508;DHT22;9383;50.928;12.116;2022-09-03T05:26:21;9.60;94.70
18508;DHT22;9383;50.928;12.116;2022-09-03T05:28:54;9.60;94.90
18508;DHT22;9383;50.928;12.116;2022-09-03T05:31:23;9.60;95.00
18508;DHT22;9383;50.928;12.116;2022-09-03T05:33:53;9.60;95.00
18508;DHT22;9383;50.928;12.116;2022-09-03T05:36:24;9.70;95.30
18508;DHT22;9383;50.928;12.116;2022-09-03T05:38:52;9.80;95.50
18508;DHT22;9383;50.928;12.116;2022-09-03T05:41:22;9.80;95.50
18508;DHT22;9383;50.928;12.116;2022-09-03T05:43:50;9.90;95.90
18508;DHT22;9383;50.928;12.116;2022-09-03T05:46:22;9.90;96.10
18508;DHT22;9383;50.928;12.116;2022-09-03T05:48:54;10.00;96.30
18508;DHT22;9383;50.928;12.116;2022-09-03T05:51:21;10.00;96.30
18508;DHT22;9383;50.928;12.116;2022-09-03T05:53:48;10.20;96.80
18508;DHT22;9383;50.928;12.116;2022-09-03T05:56:17;10.40;97.10
18508;DHT22;9383;50.928;12.116;2022-09-03T05:58:47;10.30;97.10
18508;DHT22;9383;50.928;12.116;2022-09-03T06:01:19;10.30;97.40
18508;DHT22;9383;50.928;12.116;2022-09-03T06:03:55;10.40;97.60
18508;DHT22;9383;50.928;12.116;2022-09-03T06:06:27;10.50;97.80
18508;DHT22;9383;50.928;12.116;2022-09-03T06:09:03;10.60;97.70
18508;DHT22;9383;50.928;12.116;2022-09-03T06:11:32;10.80;98.10
18508;DHT22;9383;50.928;12.116;2022-09-03T06:14:01;10.90;98.10
18508;DHT22;9383;50.928;12.116;2022-09-03T06:16:37;11.00;98.20
18508;DHT22;9383;50.928;12.116;2022-09-03T06:19:06;11.20;98.20
18508;DHT22;9383;50.928;12.116;2022-09-03T06:21:40;11.40;98.10
18508;DHT22;9383;50.928;12.116;2022-09-03T06:24:09;11.60;98.10
18508;DHT22;9383;50.928;12.116;2022-09-03T06:26:37;11.70;98.10
18508;DHT22;9383;50.928;12.116;2022-09-03T06:29:03;11.80;98.00
18508;DHT22;9383;50.928;12.116;2022-09-03T06:31:29;12.00;97.80
18508;DHT22;9383;50.928;12.116;2022-09-03T06:33:56;12.10;97.80
18508;DHT22;9383;50.928;12.116;2022-09-03T06:36:23;12.20;98.00
18508;DHT22;9383;50.928;12.116;2022-09-03T06:38:53;12.40;97.50
18508;DHT22;9383;50.928;12.116;2022-09-03T06:41:22;12.40;97.70
18508;DHT22;9383;50.928;12.116;2022-09-03T06:43:57;12.60;97.60
18508;DHT22;9383;50.928;12.116;2022-09-03T06:46:27;12.80;97.50
18508;DHT22;9383;50.928;12.116;2022-09-03T06:48:54;12.90;97.30
18508;DHT22;9383;50.928;12.116;2022-09-03T06:51:25;13.00;96.90
18508;DHT22;9383;50.928;12.116;2022-09-03T06:53:58;13.20;96.80
18508;DHT22;9383;50.928;12.116;2022-09-03T06:56:26;13.30;96.40
18508;DHT22;9383;50.928;12.116;2022-09-03T06:58:54;13.40;95.90
18508;DHT22;9383;50.928;12.116;2022-09-03T07:01:27;13.60;95.60
18508;DHT22;9383;50.928;12.116;2022-09-03T07:03:57;13.80;95.20
18508;DHT22;9383;50.928;12.116;2022-09-03T07:06:30;13.90;94.70
18508;DHT22;9383;50.928;12.116;2022-09-03T07:08:58;14.10;94.10
18508;DHT22;9383;50.928;12.116;2022-09-03T07:11:28;14.20;93.70
18508;DHT22;9383;50.928;12.116;2022-09-03T07:13:58;14.30;93.40
18508;DHT22;9383;50.928;12.116;2022-09-03T07:16:31;14.50;93.10
18508;DHT22;9383;50.928;12.116;2022-09-03T07:18:59;14.60;92.70
18508;DHT22;9383;50.928;12.116;2022-09-03T07:21:27;14.80;92.10
18508;DHT22;9383;50.928;12.116;2022-09-03T07:23:55;14.90;92.10
18508;DHT22;9383;50.928;12.116;2022-09-03T07:26:28;14.90;91.90
18508;DHT22;9383;50.928;12.116;2022-09-03T07:28:55;15.10;91.80
18508;DHT22;9383;50.928;12.116;2022-09-03T07:31:31;15.20;91.70
18508;DHT22;9383;50.928;12.116;2022-09-03T07:34:07;15.20;91.50
18508;DHT22;9383;50.928;12.116;2022-09-03T07:36:37;15.30;91.50
18508;DHT22;9383;50.928;12.116;2022-09-03T07:39:13;15.40;91.40
18508;DHT22;9383;50.928;12.116;2022-09-03T07:41:41;15.60;90.60
18508;DHT22;9383;50.928;12.116;2022-09-03T07:44:12;15.60;91.00
18508;DHT22;9383;50.928;12.116;2022-09-03T07:46:40;15.70;90.60
18508;DHT22;9383;50.928;12.116;2022-09-03T07:49:08;15.70;90.60
18508;DHT22;9383;50.928;12.116;2022-09-03T07:51:37;15.80;90.60
18508;DHT22;9383;50.928;12.116;2022-09-03T07:54:05;15.90;90.60
18508;DHT22;9383;50.928;12.116;2022-09-03T07:56:34;16.00;90.40
18508;DHT22;9383;50.928;12.116;2022-09-03T07:59:03;16.10;90.20
18508;DHT22;9383;50.928;12.116;2022-09-03T08:01:31;16.10;89.70
18508;DHT22;9383;50.928;12.116;2022-09-03T08:03:59;16.30;89.20
18508;DHT22;9383;50.928;12.116;2022-09-03T08:06:27;16.30;89.00
18508;DHT22;9383;50.928;12.116;2022-09-03T08:08:59;16.40;88.60
18508;DHT22;9383;50.928;12.116;2022-09-03T08:11:30;16.50;88.60
18508;DHT22;9383;50.928;12.116;2022-09-03T08:14:05;16.60;88.50
18508;DHT22;9383;50.928;12.116;2022-09-03T08:16:39;16.80;87.40
18508;DHT22;9383;50.928;12.116;2022-09-03T08:19:13;16.90;83.80
18508;DHT22;9383;50.928;12.116;2022-09-03T08:21:40;16.90;84.20
18508;DHT22;9383;50.928;12.116;2022-09-03T08:24:07;17.20;83.40
18508;DHT22;9383;50.928;12.116;2022-09-03T08:26:38;17.20;84.20
18508;DHT22;9383;50.928;12.116;2022-09-03T08:29:07;17.30;81.70
18508;DHT22;9383;50.928;12.116;2022-09-03T08:31:34;17.30;81.10
18508;DHT22;9383;50.928;12.116;2022-09-03T08:34:04;17.50;79.50
18508;DHT22;9383;50.928;12.116;2022-09-03T08:36:36;17.50;80.20
18508;DHT22;9383;50.928;12.116;2022-09-03T08:39:08;17.60;77.20
18508;DHT22;9383;50.928;12.116;2022-09-03T08:45:00;17.90;75.50
18508;DHT22;9383;50.928;12.116;2022-09-03T08:47:51;18.00;73.50
18508;DHT22;9383;50.928;12.116;2022-09-03T08:50:30;18.10;72.70
18508;DHT22;9383;50.928;12.116;2022-09-03T08:53:08;18.10;72.40
18508;DHT22;9383;50.928;12.116;2022-09-03T08:56:11;18.30;73.50
18508;DHT22;9383;50.928;12.116;2022-09-03T08:58:44;18.40;70.50
18508;DHT22;9383;50.928;12.116;2022-09-03T09:04:04;18.50;69.90
18508;DHT22;9383;50.928;12.116;2022-09-03T09:06:53;18.60;70.00
18508;DHT22;9383;50.928;12.116;2022-09-03T09:09:29;18.70;71.10
18508;DHT22;9383;50.928;12.116;2022-09-03T09:12:34;18.80;70.90
18508;DHT22;9383;50.928;12.116;2022-09-03T09:15:29;18.90;67.80
18508;DHT22;9383;50.928;12.116;2022-09-03T09:20:52;19.00;68.70
18508;DHT22;9383;50.928;12.116;2022-09-03T09:23:47;19.10;69.30
18508;DHT22;9383;50.928;12.116;2022-09-03T09:26:17;19.20;69.30
18508;DHT22;9383;50.928;12.116;2022-09-03T09:28:54;19.20;68.80
18508;DHT22;9383;50.928;12.116;2022-09-03T09:31:29;19.20;67.90
18508;DHT22;9383;50.928;12.116;2022-09-03T09:34:06;19.30;67.70
18508;DHT22;9383;50.928;12.116;2022-09-03T09:37:00;19.40;67.70
18508;DHT22;9383;50.928;12.116;2022-09-03T09:39:30;19.40;66.20
18508;DHT22;9383;50.928;12.116;2022-09-03T09:42:03;19.50;67.10
18508;DHT22;9383;50.928;12.116;2022-09-03T09:44:37;19.50;64.70
18508;DHT22;9383;50.928;12.116;2022-09-03T09:47:11;19.60;65.90
18508;DHT22;9383;50.928;12.116;2022-09-03T09:52:13;19.80;65.30
18508;DHT22;9383;50.928;12.116;2022-09-03T09:54:43;19.80;64.00
18508;DHT22;9383;50.928;12.116;2022-09-03T09:57:20;19.80;64.40
18508;DHT22;9383;50.928;12.116;2022-09-03T09:59:47;19.90;63.70
18508;DHT22;9383;50.928;12.116;2022-09-03T10:02:25;20.00;60.90
18508;DHT22;9383;50.928;12.116;2022-09-03T10:05:19;20.00;60.50
18508;DHT22;9383;50.928;12.116;2022-09-03T10:08:02;20.10;60.00
18508;DHT22;9383;50.928;12.116;2022-09-03T10:10:33;20.10;59.30
18508;DHT22;9383;50.928;12.116;2022-09-03T10:13:13;20.20;60.30
18508;DHT22;9383;50.928;12.116;2022-09-03T10:15:58;20.30;60.70
18508;DHT22;9383;50.928;12.116;2022-09-03T10:24:35;20.60;59.10
18508;DHT22;9383;50.928;12.116;2022-09-03T10:27:08;20.70;58.70
18508;DHT22;9383;50.928;12.116;2022-09-03T10:29:39;20.70;58.00
18508;DHT22;9383;50.928;12.116;2022-09-03T10:32:32;20.80;58.70
18508;DHT22;9383;50.928;12.116;2022-09-03T10:40:39;21.00;56.70
18508;DHT22;9383;50.928;12.116;2022-09-03T10:46:42;21.00;55.90
18508;DHT22;9383;50.928;12.116;2022-09-03T10:49:37;21.10;54.70
18508;DHT22;9383;50.928;12.116;2022-09-03T10:55:10;21.20;53.60
18508;DHT22;9383;50.928;12.116;2022-09-03T10:57:48;21.20;55.10
18508;DHT22;9383;50.928;12.116;2022-09-03T11:00:21;21.10;53.90
18508;DHT22;9383;50.928;12.116;2022-09-03T11:04:16;21.00;54.00
18508;DHT22;9383;50.928;12.116;2022-09-03T11:06:27;21.00;55.50
18508;DHT22;9383;50.928;12.116;2022-09-03T11:11:50;21.00;55.30
18508;DHT22;9383;50.928;12.116;2022-09-03T11:14:37;21.00;54.70
18508;DHT22;9383;50.928;12.116;2022-09-03T11:17:25;20.90;53.00
18508;DHT22;9383;50.928;12.116;2022-09-03T11:20:17;20.90;54.30
18508;DHT22;9383;50.928;12.116;2022-09-03T11:22:47;20.90;53.90
18508;DHT22;9383;50.928;12.116;2022-09-03T11:25:18;20.80;54.50
18508;DHT22;9383;50.928;12.116;2022-09-03T11:27:55;20.90;53.70
18508;DHT22;9383;50.928;12.116;2022-09-03T11:31:52;20.90;54.90
18508;DHT22;9383;50.928;12.116;2022-09-03T11:34:31;21.00;54.50
18508;DHT22;9383;50.928;12.116;2022-09-03T11:40:12;20.80;53.60
18508;DHT22;9383;50.928;12.116;2022-09-03T11:42:45;20.80;54.60
18508;DHT22;9383;50.928;12.116;2022-09-03T11:47:52;20.90;55.00
18508;DHT22;9383;50.928;12.116;2022-09-03T11:56:38;20.90;54.10
18508;DHT22;9383;50.928;12.116;2022-09-03T11:58:45;21.00;54.30
18508;DHT22;9383;50.928;12.116;2022-09-03T12:01:14;21.10;54.50
18508;DHT22;9383;50.928;12.116;2022-09-03T12:03:44;25.80;56.10
18508;DHT22;9383;50.928;12.116;2022-09-03T12:09:55;21.20;54.30
18508;DHT22;9383;50.928;12.116;2022-09-03T12:12:52;21.30;54.30
18508;DHT22;9383;50.928;12.116;2022-09-03T12:15:53;21.30;53.30
18508;DHT22;9383;50.928;12.116;2022-09-03T12:18:47;21.30;53.40
18508;DHT22;9383;50.928;12.116;2022-09-03T12:21:18;21.30;53.00
18508;DHT22;9383;50.928;12.116;2022-09-03T12:23:47;21.40;52.60
18508;DHT22;9383;50.928;12.116;2022-09-03T12:26:19;21.40;52.50
18508;DHT22;9383;50.928;12.116;2022-09-03T12:28:52;21.30;52.30
18508;DHT22;9383;50.928;12.116;2022-09-03T12:31:28;21.30;52.10
18508;DHT22;9383;50.928;12.116;2022-09-03T12:34:02;21.40;53.30
18508;DHT22;9383;50.928;12.116;2022-09-03T12:36:43;21.30;53.60
18508;DHT22;9383;50.928;12.116;2022-09-03T12:39:20;21.30;54.30
18508;DHT22;9383;50.928;12.116;2022-09-03T12:47:05;21.30;54.90
18508;DHT22;9383;50.928;12.116;2022-09-03T12:49:41;21.30;55.30
18508;DHT22;9383;50.928;12.116;2022-09-03T12:52:17;21.40;55.90
18508;DHT22;9383;50.928;12.116;2022-09-03T12:55:13;21.40;53.80
18508;DHT22;9383;50.928;12.116;2022-09-03T12:58:10;21.50;53.90
18508;DHT22;9383;50.928;12.116;2022-09-03T13:00:59;21.60;54.50
18508;DHT22;9383;50.928;12.116;2022-09-03T13:06:27;21.70;53.10
18508;DHT22;9383;50.928;12.116;2022-09-03T13:09:17;21.70;53.80
18508;DHT22;9383;50.928;12.116;2022-09-03T13:11:47;21.70;54.00
18508;DHT22;9383;50.928;12.116;2022-09-03T13:14:15;21.70;53.80
18508;DHT22;9383;50.928;12.116;2022-09-03T13:17:06;21.70;53.50
18508;DHT22;9383;50.928;12.116;2022-09-03T13:19:49;21.70;54.00
18508;DHT22;9383;50.928;12.116;2022-09-03T13:22:49;21.70;53.20
18508;DHT22;9383;50.928;12.116;2022-09-03T13:25:25;21.70;52.20
18508;DHT22;9383;50.928;12.116;2022-09-03T13:31:31;21.70;52.20
18508;DHT22;9383;50.928;12.116;2022-09-03T13:34:07;21.70;52.10
18508;DHT22;9383;50.928;12.116;2022-09-03T13:36:45;21.70;52.80
18508;DHT22;9383;50.928;12.116;2022-09-03T13:39:45;21.70;52.60
18508;DHT22;9383;50.928;12.116;2022-09-03T13:42:21;21.80;53.20
18508;DHT22;9383;50.928;12.116;2022-09-03T13:45:02;21.80;53.20
18508;DHT22;9383;50.928;12.116;2022-09-03T13:47:55;21.90;52.60
18508;DHT22;9383;50.928;12.116;2022-09-03T13:51:12;21.90;53.30
18508;DHT22;9383;50.928;12.116;2022-09-03T13:57:00;21.90;53.20
18508;DHT22;9383;50.928;12.116;2022-09-03T13:59:39;21.90;52.60
18508;DHT22;9383;50.928;12.116;2022-09-03T14:02:36;21.90;52.90
18508;DHT22;9383;50.928;12.116;2022-09-03T14:05:40;21.90;51.80
18508;DHT22;9383;50.928;12.116;2022-09-03T14:08:31;24.70;53.60
18508;DHT22;9383;50.928;12.116;2022-09-03T14:17:30;21.90;51.60
18508;DHT22;9383;50.928;12.116;2022-09-03T14:20:29;22.70;52.60
18508;DHT22;9383;50.928;12.116;2022-09-03T14:26:23;21.90;51.20
18508;DHT22;9383;50.928;12.116;2022-09-03T14:31:45;21.90;50.90
18508;DHT22;9383;50.928;12.116;2022-09-03T14:38:04;22.00;51.60
18508;DHT22;9383;50.928;12.116;2022-09-03T14:40:43;22.00;51.10
18508;DHT22;9383;50.928;12.116;2022-09-03T14:55:11;22.10;51.80
18508;DHT22;9383;50.928;12.116;2022-09-03T14:58:34;22.10;51.70
18508;DHT22;9383;50.928;12.116;2022-09-03T15:01:32;22.20;51.40
18508;DHT22;9383;50.928;12.116;2022-09-03T15:04:14;22.30;51.90
18508;DHT22;9383;50.928;12.116;2022-09-03T15:12:40;22.40;51.80
18508;DHT22;9383;50.928;12.116;2022-09-03T15:15:23;22.40;51.90
18508;DHT22;9383;50.928;12.116;2022-09-03T15:21:44;22.50;51.60
18508;DHT22;9383;50.928;12.116;2022-09-03T15:30:33;22.50;52.40
18508;DHT22;9383;50.928;12.116;2022-09-03T15:33:34;22.50;52.70
18508;DHT22;9383;50.928;12.116;2022-09-03T15:39:00;22.50;52.10
18508;DHT22;9383;50.928;12.116;2022-09-03T15:41:50;22.40;52.30
18508;DHT22;9383;50.928;12.116;2022-09-03T15:44:18;22.40;52.00
18508;DHT22;9383;50.928;12.116;2022-09-03T15:46:55;22.30;52.50
18508;DHT22;9383;50.928;12.116;2022-09-03T15:49:46;22.30;53.10
18508;DHT22;9383;50.928;12.116;2022-09-03T15:52:47;22.30;53.50
18508;DHT22;9383;50.928;12.116;2022-09-03T15:55:30;22.30;53.70
18508;DHT22;9383;50.928;12.116;2022-09-03T16:01:14;22.20;53.40
18508;DHT22;9383;50.928;12.116;2022-09-03T16:09:24;22.10;53.30
18508;DHT22;9383;50.928;12.116;2022-09-03T16:15:11;22.00;53.50
18508;DHT22;9383;50.928;12.116;2022-09-03T16:17:56;22.00;54.60
18508;DHT22;9383;50.928;12.116;2022-09-03T16:20:42;22.00;54.60
18508;DHT22;9383;50.928;12.116;2022-09-03T16:23:24;21.90;54.70
18508;DHT22;9383;50.928;12.116;2022-09-03T16:26:12;21.90;55.10
18508;DHT22;9383;50.928;12.116;2022-09-03T16:28:53;21.90;55.40
18508;DHT22;9383;50.928;12.116;2022-09-03T16:34:46;21.80;56.20
18508;DHT22;9383;50.928;12.116;2022-09-03T16:40:41;21.70;55.50
18508;DHT22;9383;50.928;12.116;2022-09-03T16:51:55;21.50;56.80
18508;DHT22;9383;50.928;12.116;2022-09-03T16:58:05;21.40;56.40
18508;DHT22;9383;50.928;12.116;2022-09-03T17:06:55;21.20;56.90
18508;DHT22;9383;50.928;12.116;2022-09-03T17:09:51;21.20;57.20
18508;DHT22;9383;50.928;12.116;2022-09-03T17:12:38;21.10;57.10
18508;DHT22;9383;50.928;12.116;2022-09-03T17:24:08;21.10;57.00
18508;DHT22;9383;50.928;12.116;2022-09-03T17:30:04;20.90;56.90
18508;DHT22;9383;50.928;12.116;2022-09-03T17:35:33;20.80;56.90
18508;DHT22;9383;50.928;12.116;2022-09-03T17:41:20;20.70;57.70
18508;DHT22;9383;50.928;12.116;2022-09-03T17:52:51;20.70;58.80
18508;DHT22;9383;50.928;12.116;2022-09-03T17:55:35;20.70;58.90
18508;DHT22;9383;50.928;12.116;2022-09-03T18:03:57;20.50;58.80
18508;DHT22;9383;50.928;12.116;2022-09-03T18:06:34;20.50;59.00
18508;DHT22;9383;50.928;12.116;2022-09-03T18:12:13;20.50;59.10
18508;DHT22;9383;50.928;12.116;2022-09-03T18:15:03;20.40;58.90
18508;DHT22;9383;50.928;12.116;2022-09-03T18:20:20;20.40;59.20
18508;DHT22;9383;50.928;12.116;2022-09-03T18:23:18;20.30;59.30
18508;DHT22;9383;50.928;12.116;2022-09-03T18:26:18;20.30;59.20
18508;DHT22;9383;50.928;12.116;2022-09-03T18:29:41;20.30;59.30
18508;DHT22;9383;50.928;12.116;2022-09-03T18:32:29;20.20;59.50
18508;DHT22;9383;50.928;12.116;2022-09-03T18:35:14;20.20;60.10
18508;DHT22;9383;50.928;12.116;2022-09-03T18:38:02;20.10;60.20
18508;DHT22;9383;50.928;12.116;2022-09-03T18:41:04;20.10;60.00
18508;DHT22;9383;50.928;12.116;2022-09-03T18:44:16;20.10;60.10
18508;DHT22;9383;50.928;12.116;2022-09-03T18:50:25;20.10;60.00
18508;DHT22;9383;50.928;12.116;2022-09-03T18:53:34;20.10;60.10
18508;DHT22;9383;50.928;12.116;2022-09-03T18:56:53;20.10;60.70
18508;DHT22;9383;50.928;12.116;2022-09-03T19:00:03;20.10;59.90
18508;DHT22;9383;50.928;12.116;2022-09-03T19:03:14;20.10;60.50
18508;DHT22;9383;50.928;12.116;2022-09-03T19:06:14;20.10;60.70
18508;DHT22;9383;50.928;12.116;2022-09-03T19:09:34;20.00;60.70
18508;DHT22;9383;50.928;12.116;2022-09-03T19:15:33;20.00;61.00
18508;DHT22;9383;50.928;12.116;2022-09-03T19:21:51;19.90;61.60
18508;DHT22;9383;50.928;12.116;2022-09-03T19:24:42;19.90;61.60
18508;DHT22;9383;50.928;12.116;2022-09-03T19:30:47;19.80;61.80
18508;DHT22;9383;50.928;12.116;2022-09-03T19:33:59;19.80;62.10
18508;DHT22;9383;50.928;12.116;2022-09-03T19:37:13;19.80;62.00
18508;DHT22;9383;50.928;12.116;2022-09-03T19:40:25;19.80;62.10
18508;DHT22;9383;50.928;12.116;2022-09-03T19:46:50;19.80;62.20
18508;DHT22;9383;50.928;12.116;2022-09-03T19:53:06;19.70;63.10
18508;DHT22;9383;50.928;12.116;2022-09-03T19:56:02;19.70;64.00
18508;DHT22;9383;50.928;12.116;2022-09-03T19:59:00;19.60;63.90
18508;DHT22;9383;50.928;12.116;2022-09-03T20:01:51;19.60;64.10
18508;DHT22;9383;50.928;12.116;2022-09-03T20:04:44;19.60;64.60
18508;DHT22;9383;50.928;12.116;2022-09-03T20:07:34;19.80;65.60
18508;DHT22;9383;50.928;12.116;2022-09-03T20:10:21;19.60;65.80
18508;DHT22;9383;50.928;12.116;2022-09-03T20:13:09;19.50;66.10
18508;DHT22;9383;50.928;12.116;2022-09-03T20:15:56;19.50;66.60
18508;DHT22;9383;50.928;12.116;2022-09-03T20:21:41;19.40;68.00
18508;DHT22;9383;50.928;12.116;2022-09-03T20:24:24;19.30;68.20
18508;DHT22;9383;50.928;12.116;2022-09-03T20:30:05;19.30;69.20
18508;DHT22;9383;50.928;12.116;2022-09-03T20:35:42;19.20;70.60
18508;DHT22;9383;50.928;12.116;2022-09-03T20:39:03;19.10;71.10
18508;DHT22;9383;50.928;12.116;2022-09-03T20:50:53;18.90;72.80
18508;DHT22;9383;50.928;12.116;2022-09-03T20:59:45;18.80;75.40
18508;DHT22;9383;50.928;12.116;2022-09-03T21:09:08;18.60;76.30
18508;DHT22;9383;50.928;12.116;2022-09-03T21:12:43;18.60;76.30
18508;DHT22;9383;50.928;12.116;2022-09-03T21:15:26;18.40;76.90